Time;durP1;ratioP1;P1;durP2;ratioP2;P2;SDS_P1;SDS_P2;PMS_P1;PMS_P2;Temp;Humidity;BMP_temperature;BMP_pressure;BME280_temperature;BME280_humidity;BME280_pressure;Samples;Min_cycle;Max_cycle;Signal;HPM_P1;HPM_P2
2022/07/09 00:00:24;;;;;;;11.88;6.13;;;17.00;99.90;;;;;;5031267;28;20045;-74
2022/07/09 00:02:50;;;;;;;14.63;7.93;;;16.90;99.90;;;;;;5031308;28;20103;-76
2022/07/09 00:05:16;;;;;;;15.93;8.23;;;16.90;99.90;;;;;;5051080;28;20055;-76
2022/07/09 00:07:41;;;;;;;16.25;7.35;;;16.90;99.90;;;;;;5038836;28;20045;-76
2022/07/09 00:10:08;;;;;;;16.88;8.30;;;16.90;99.90;;;;;;5031423;28;20045;-75
2022/07/09 00:12:33;;;;;;;12.10;6.63;;;16.90;99.90;;;;;;5030313;28;20056;-75
2022/07/09 00:14:59;;;;;;;17.50;9.20;;;16.80;99.90;;;;;;5031276;28;20045;-76
2022/07/09 00:17:29;;;;;;;12.57;6.40;;;16.80;99.90;;;;;;5038541;28;20053;-75
2022/07/09 00:19:56;;;;;;;13.70;5.80;;;16.80;99.90;;;;;;5037657;28;20527;-76
2022/07/09 00:22:22;;;;;;;13.32;7.20;;;16.80;99.90;;;;;;5016995;28;20460;-75
2022/07/09 00:24:47;;;;;;;12.05;5.82;;;16.80;99.90;;;;;;5033040;28;20130;-76
2022/07/09 00:27:13;;;;;;;10.50;6.43;;;16.70;99.90;;;;;;5017421;28;20440;-78
2022/07/09 00:29:39;;;;;;;17.45;7.07;;;16.70;99.90;;;;;;5036276;28;20061;-76
2022/07/09 00:32:05;;;;;;;16.80;8.10;;;16.70;99.90;;;;;;5033081;28;20049;-75
2022/07/09 00:34:32;;;;;;;13.57;7.47;;;16.70;99.90;;;;;;5030146;28;20041;-75
2022/07/09 00:36:57;;;;;;;15.43;7.57;;;16.60;99.90;;;;;;5048662;28;20056;-75
2022/07/09 00:39:23;;;;;;;13.85;6.22;;;16.60;99.90;;;;;;5021121;28;20465;-75
2022/07/09 00:41:49;;;;;;;15.52;7.70;;;16.50;99.90;;;;;;5034981;28;20049;-77
2022/07/09 00:44:14;;;;;;;10.98;6.10;;;16.50;99.90;;;;;;5037186;28;20059;-75
2022/07/09 00:46:40;;;;;;;12.85;6.25;;;16.50;99.90;;;;;;5019066;28;20041;-76
2022/07/09 00:49:06;;;;;;;14.10;6.90;;;16.50;99.90;;;;;;5048881;28;20045;-76
2022/07/09 00:51:32;;;;;;;12.90;6.80;;;16.40;99.90;;;;;;5034098;28;20049;-75
2022/07/09 00:54:01;;;;;;;12.00;6.70;;;16.40;99.90;;;;;;5018031;28;20370;-75
2022/07/09 00:56:29;;;;;;;11.75;6.13;;;16.50;99.90;;;;;;5054727;28;20373;-75
2022/07/09 00:58:55;;;;;;;15.35;7.82;;;16.40;99.90;;;;;;5043166;28;20445;-74
2022/07/09 01:01:21;;;;;;;15.00;7.60;;;16.40;99.90;;;;;;5026493;28;20081;-75
2022/07/09 01:03:47;;;;;;;14.65;7.78;;;16.40;99.90;;;;;;5036810;28;20091;-75
2022/07/09 01:06:15;;;;;;;15.70;8.27;;;16.40;99.90;;;;;;5054982;28;20072;-75
2022/07/09 01:08:41;;;;;;;11.23;6.15;;;16.40;99.90;;;;;;5037024;28;20073;-75
2022/07/09 01:11:06;;;;;;;18.58;8.60;;;16.40;99.90;;;;;;5050763;28;20133;-75
2022/07/09 01:13:32;;;;;;;17.35;9.10;;;16.40;99.90;;;;;;5032040;28;20413;-76
2022/07/09 01:15:58;;;;;;;15.27;8.43;;;16.40;99.90;;;;;;5020716;28;20077;-76
2022/07/09 01:18:23;;;;;;;13.57;6.60;;;16.40;99.90;;;;;;5034186;28;20053;-76
2022/07/09 01:20:50;;;;;;;16.30;8.18;;;16.40;99.90;;;;;;5033791;28;20057;-76
2022/07/09 01:23:18;;;;;;;15.43;7.13;;;16.40;99.90;;;;;;5034243;28;20137;-74
2022/07/09 01:25:44;;;;;;;10.40;5.70;;;16.40;99.90;;;;;;5054023;28;20047;-75
2022/07/09 01:28:10;;;;;;;11.93;6.18;;;16.40;99.90;;;;;;5036061;28;20057;-76
2022/07/09 01:30:39;;;;;;;12.85;6.63;;;16.40;99.90;;;;;;5019843;28;20056;-75
2022/07/09 01:33:04;;;;;;;13.88;7.50;;;16.40;99.90;;;;;;5026064;28;20053;-76
2022/07/09 01:35:30;;;;;;;14.50;6.75;;;16.40;99.90;;;;;;5050135;28;20057;-75
2022/07/09 01:37:56;;;;;;;13.93;7.18;;;16.30;99.90;;;;;;5054229;28;20388;-75
2022/07/09 01:40:23;;;;;;;11.35;6.10;;;16.30;99.90;;;;;;5034913;28;20084;-75
2022/07/09 01:42:49;;;;;;;15.30;8.15;;;16.20;99.90;;;;;;5051975;28;20040;-75
2022/07/09 01:45:15;;;;;;;13.35;7.40;;;16.20;99.90;;;;;;5040618;28;20045;-76
2022/07/09 01:47:41;;;;;;;13.80;7.22;;;16.20;99.90;;;;;;5029646;28;20049;-76
2022/07/09 01:50:08;;;;;;;13.23;7.13;;;16.20;99.90;;;;;;5033532;28;20099;-75
2022/07/09 01:52:34;;;;;;;15.45;6.90;;;16.20;99.90;;;;;;5033080;28;20188;-76
2022/07/09 01:55:00;;;;;;;16.95;8.68;;;16.30;99.90;;;;;;5036538;28;20123;-75
2022/07/09 01:57:26;;;;;;;24.67;10.98;;;16.20;99.90;;;;;;5053294;28;20617;-76
2022/07/09 01:59:52;;;;;;;12.90;7.88;;;16.20;99.90;;;;;;5052844;28;20049;-77
2022/07/09 02:02:18;;;;;;;14.85;8.45;;;16.20;99.90;;;;;;5045431;28;20054;-75
2022/07/09 02:04:45;;;;;;;17.25;8.07;;;16.20;99.90;;;;;;5033496;28;20374;-76
2022/07/09 02:07:11;;;;;;;14.35;8.65;;;16.20;99.90;;;;;;5032625;28;20447;-76
2022/07/09 02:09:37;;;;;;;19.20;8.90;;;16.30;99.90;;;;;;5033402;28;20068;-78
2022/07/09 02:12:04;;;;;;;13.98;6.80;;;16.30;99.90;;;;;;5032299;28;20061;-80
2022/07/09 02:14:30;;;;;;;15.45;8.43;;;16.30;99.90;;;;;;5048828;28;20061;-77
2022/07/09 02:16:56;;;;;;;17.27;8.85;;;16.40;99.90;;;;;;5036862;28;20087;-76
2022/07/09 02:19:22;;;;;;;19.63;9.73;;;16.30;99.90;;;;;;5044935;28;20081;-76
2022/07/09 02:21:48;;;;;;;15.10;8.77;;;16.30;99.90;;;;;;5032027;28;20536;-75
2022/07/09 02:24:15;;;;;;;14.82;8.77;;;16.30;99.90;;;;;;5040106;28;20045;-76
2022/07/09 02:26:41;;;;;;;19.83;11.25;;;16.30;99.90;;;;;;5032728;28;20057;-76
2022/07/09 02:29:07;;;;;;;17.48;10.45;;;16.30;99.90;;;;;;5040168;28;20037;-76
2022/07/09 02:31:33;;;;;;;16.00;9.38;;;16.30;99.90;;;;;;5038551;28;20049;-76
2022/07/09 02:33:58;;;;;;;17.98;10.15;;;16.30;99.90;;;;;;5052308;28;20045;-78
2022/07/09 02:36:24;;;;;;;16.60;10.15;;;16.30;99.90;;;;;;5052837;28;20103;-76
2022/07/09 02:38:50;;;;;;;19.95;12.48;;;16.30;99.90;;;;;;5037692;28;20134;-76
2022/07/09 02:41:15;;;;;;;23.63;13.07;;;16.30;99.90;;;;;;5041386;28;20396;-75
2022/07/09 02:43:44;;;;;;;19.77;12.20;;;16.30;99.90;;;;;;5031581;28;20713;-76
2022/07/09 02:46:11;;;;;;;16.52;9.43;;;16.30;99.90;;;;;;5052484;28;20045;-75
2022/07/09 02:48:37;;;;;;;19.23;11.57;;;16.20;99.90;;;;;;5021530;28;20076;-76
2022/07/09 02:51:03;;;;;;;15.27;8.20;;;16.30;99.90;;;;;;5049023;28;20531;-76
2022/07/09 02:53:29;;;;;;;17.13;10.98;;;16.30;99.90;;;;;;5036480;28;20076;-75
2022/07/09 02:55:55;;;;;;;19.35;10.35;;;16.30;99.90;;;;;;5052437;28;20088;-76
2022/07/09 02:58:21;;;;;;;17.15;10.25;;;16.20;99.90;;;;;;5048285;28;20092;-76
2022/07/09 03:00:47;;;;;;;19.25;12.68;;;16.30;99.90;;;;;;5021184;28;20611;-75
2022/07/09 03:03:13;;;;;;;22.00;13.05;;;16.20;99.90;;;;;;5031760;28;20049;-77
2022/07/09 03:05:38;;;;;;;20.95;13.32;;;16.20;99.90;;;;;;5033327;28;20175;-76
2022/07/09 03:08:05;;;;;;;17.83;11.50;;;16.20;99.90;;;;;;5031323;28;20550;-75
2022/07/09 03:10:31;;;;;;;17.52;10.65;;;16.20;99.90;;;;;;5045809;28;20476;-74
2022/07/09 03:12:57;;;;;;;17.33;11.38;;;16.30;99.90;;;;;;5014743;28;20048;-74
2022/07/09 03:15:23;;;;;;;19.02;12.02;;;16.30;99.90;;;;;;5051692;28;20158;-74
2022/07/09 03:17:49;;;;;;;19.02;11.75;;;16.30;99.90;;;;;;5052798;28;20039;-75
2022/07/09 03:20:14;;;;;;;23.55;13.23;;;16.30;99.90;;;;;;5047146;28;20141;-77
2022/07/09 03:22:41;;;;;;;23.15;13.07;;;16.20;99.90;;;;;;5014899;28;20091;-76
2022/07/09 03:25:08;;;;;;;17.80;10.02;;;16.20;99.90;;;;;;5046377;28;20049;-75
2022/07/09 03:27:34;;;;;;;21.83;13.30;;;16.30;99.90;;;;;;5040754;28;20049;-76
2022/07/09 03:30:01;;;;;;;20.50;11.35;;;16.30;99.90;;;;;;5037048;28;20056;-76
2022/07/09 03:32:27;;;;;;;21.70;13.57;;;16.20;99.90;;;;;;5043186;28;20404;-76
2022/07/09 03:34:52;;;;;;;22.98;13.15;;;16.30;99.90;;;;;;5046031;28;20049;-75
2022/07/09 03:37:19;;;;;;;17.75;11.52;;;16.30;99.90;;;;;;5051582;28;20053;-76
2022/07/09 03:39:45;;;;;;;18.70;11.63;;;16.30;99.90;;;;;;5038842;28;20077;-75
2022/07/09 03:42:11;;;;;;;18.38;12.50;;;16.20;99.90;;;;;;5049245;28;20087;-78
2022/07/09 03:44:37;;;;;;;21.95;13.02;;;16.10;99.90;;;;;;5031649;28;20081;-77
2022/07/09 03:47:03;;;;;;;19.67;12.00;;;16.20;99.90;;;;;;5046464;28;20053;-77
2022/07/09 03:49:29;;;;;;;19.13;10.48;;;16.20;99.90;;;;;;5031399;28;20054;-76
2022/07/09 03:51:55;;;;;;;20.77;13.27;;;16.10;99.90;;;;;;5031633;28;20041;-77
2022/07/09 03:54:21;;;;;;;16.98;11.23;;;16.10;99.90;;;;;;5044022;28;20056;-77
2022/07/09 03:56:47;;;;;;;15.63;10.40;;;16.10;99.90;;;;;;5033312;28;20041;-78
2022/07/09 03:59:12;;;;;;;18.77;12.20;;;16.10;99.90;;;;;;5031252;28;20041;-77
2022/07/09 04:01:38;;;;;;;19.08;10.55;;;16.10;99.90;;;;;;5035095;28;20049;-77
2022/07/09 04:04:05;;;;;;;19.90;11.20;;;16.10;99.90;;;;;;5036421;28;20057;-77
2022/07/09 04:06:31;;;;;;;16.40;9.95;;;16.10;99.90;;;;;;5035522;28;20050;-83
2022/07/09 04:08:57;;;;;;;18.17;10.20;;;16.10;99.90;;;;;;5035300;28;20045;-77
2022/07/09 04:11:22;;;;;;;16.05;10.45;;;16.10;99.90;;;;;;5048319;28;20064;-77
2022/07/09 04:13:48;;;;;;;16.15;10.05;;;16.10;99.90;;;;;;5037129;28;20049;-76
2022/07/09 04:16:15;;;;;;;16.30;9.88;;;16.10;99.90;;;;;;5018932;28;20053;-78
2022/07/09 04:18:43;;;;;;;17.65;10.13;;;16.20;99.90;;;;;;5031087;28;20107;-75
2022/07/09 04:21:09;;;;;;;20.48;12.60;;;16.10;99.90;;;;;;5011719;28;20501;-76
2022/07/09 04:23:36;;;;;;;18.10;11.35;;;16.20;99.90;;;;;;5050522;28;20053;-77
2022/07/09 04:26:02;;;;;;;19.40;11.95;;;16.20;99.90;;;;;;5026622;28;20516;-78
2022/07/09 04:28:28;;;;;;;18.30;10.65;;;16.20;99.90;;;;;;5051264;28;20121;-76
2022/07/09 04:30:53;;;;;;;14.77;9.55;;;16.20;99.90;;;;;;5034077;28;20471;-76
2022/07/09 04:33:19;;;;;;;14.77;10.65;;;16.20;99.90;;;;;;5035943;28;20072;-77
2022/07/09 04:35:45;;;;;;;18.33;10.07;;;16.20;99.90;;;;;;5056166;28;20056;-73
2022/07/09 04:38:12;;;;;;;16.63;10.43;;;16.20;99.90;;;;;;5054726;28;20129;-74
2022/07/09 04:40:39;;;;;;;18.05;11.10;;;16.30;99.90;;;;;;5037962;28;20068;-76
2022/07/09 04:43:06;;;;;;;17.55;11.02;;;16.40;99.90;;;;;;5025726;28;20128;-75
2022/07/09 04:45:32;;;;;;;16.73;10.60;;;16.40;99.90;;;;;;5053773;28;20049;-75
2022/07/09 04:47:59;;;;;;;17.00;10.15;;;16.40;99.90;;;;;;5054336;28;20507;-74
2022/07/09 04:50:25;;;;;;;16.20;11.07;;;16.40;99.90;;;;;;5038092;28;20057;-76
2022/07/09 04:52:51;;;;;;;18.23;10.55;;;16.40;99.90;;;;;;5018127;28;20057;-76
2022/07/09 04:55:17;;;;;;;18.50;11.77;;;16.40;99.90;;;;;;5053597;28;20048;-77
2022/07/09 04:57:43;;;;;;;19.17;11.00;;;16.50;99.90;;;;;;5053172;28;20052;-77
2022/07/09 05:00:10;;;;;;;15.30;9.50;;;16.50;99.90;;;;;;5021406;28;20472;-77
2022/07/09 05:02:37;;;;;;;15.50;9.88;;;16.50;99.90;;;;;;5034486;28;20067;-77
2022/07/09 05:05:03;;;;;;;18.75;11.65;;;16.60;99.90;;;;;;5045503;28;20041;-76
2022/07/09 05:07:30;;;;;;;18.45;11.75;;;16.60;99.90;;;;;;5020659;28;20076;-77
2022/07/09 05:09:56;;;;;;;18.73;11.43;;;16.70;99.90;;;;;;5039544;28;20058;-77
2022/07/09 05:12:22;;;;;;;17.02;11.05;;;16.70;99.90;;;;;;5045715;28;20061;-76
2022/07/09 05:14:47;;;;;;;18.60;11.95;;;16.70;99.90;;;;;;5025955;28;20079;-76
2022/07/09 05:17:13;;;;;;;15.13;10.00;;;16.70;99.90;;;;;;5037060;28;20554;-77
2022/07/09 05:19:39;;;;;;;16.05;11.68;;;16.70;99.90;;;;;;5035316;28;20049;-77
2022/07/09 05:22:04;;;;;;;15.93;10.88;;;16.70;99.90;;;;;;5039864;28;20053;-76
2022/07/09 05:24:30;;;;;;;17.15;11.80;;;16.80;99.90;;;;;;5040503;28;20060;-77
2022/07/09 05:26:56;;;;;;;15.15;10.05;;;16.80;99.90;;;;;;5053447;28;20049;-78
2022/07/09 05:29:22;;;;;;;16.73;10.57;;;16.80;99.90;;;;;;5042066;28;20050;-78
2022/07/09 05:31:49;;;;;;;16.95;11.00;;;16.90;99.90;;;;;;5047542;28;20540;-77
2022/07/09 05:34:16;;;;;;;16.20;11.27;;;17.00;99.90;;;;;;5053428;28;20041;-76
2022/07/09 05:36:41;;;;;;;17.95;12.80;;;17.00;99.90;;;;;;5022667;28;20487;-81
2022/07/09 05:39:07;;;;;;;18.13;13.02;;;17.00;99.90;;;;;;5042155;28;20102;-76
2022/07/09 05:41:33;;;;;;;17.17;11.38;;;17.00;99.90;;;;;;5034356;28;20069;-77
2022/07/09 05:43:59;;;;;;;17.20;11.75;;;17.10;99.90;;;;;;5046410;28;20045;-78
2022/07/09 05:46:25;;;;;;;17.02;10.80;;;17.30;99.90;;;;;;5033956;28;20199;-80
2022/07/09 05:48:50;;;;;;;14.90;10.43;;;17.50;99.90;;;;;;5035781;28;20041;-76
2022/07/09 05:51:16;;;;;;;16.90;11.73;;;17.60;99.90;;;;;;5042201;28;20057;-81
2022/07/09 05:53:42;;;;;;;18.02;11.90;;;17.70;99.90;;;;;;5041526;28;20052;-77
2022/07/09 05:56:08;;;;;;;17.77;10.52;;;17.70;99.90;;;;;;5040804;28;20060;-77
2022/07/09 05:58:34;;;;;;;15.85;10.98;;;17.70;99.90;;;;;;5039497;28;20041;-77
2022/07/09 06:01:00;;;;;;;17.85;11.27;;;17.80;99.90;;;;;;5039781;28;20076;-76
2022/07/09 06:03:26;;;;;;;18.23;10.88;;;17.90;99.90;;;;;;5033006;28;20085;-77
2022/07/09 06:05:52;;;;;;;17.23;10.90;;;17.90;99.90;;;;;;5049075;28;20124;-76
2022/07/09 06:08:18;;;;;;;16.23;10.80;;;18.00;99.90;;;;;;5051287;28;20055;-76
2022/07/09 06:10:44;;;;;;;15.82;10.30;;;18.10;99.90;;;;;;5034676;28;20048;-77
2022/07/09 06:13:09;;;;;;;19.35;10.15;;;18.10;99.90;;;;;;5017950;28;20489;-74
2022/07/09 06:15:35;;;;;;;13.20;9.23;;;18.20;99.90;;;;;;5053280;28;20400;-75
2022/07/09 06:18:01;;;;;;;13.13;9.27;;;18.20;99.90;;;;;;5052110;28;20128;-75
2022/07/09 06:20:27;;;;;;;14.45;9.48;;;18.30;99.90;;;;;;5045124;28;20065;-77
2022/07/09 06:22:53;;;;;;;14.45;8.73;;;18.50;99.90;;;;;;5033304;28;20060;-76
2022/07/09 06:25:18;;;;;;;14.60;8.85;;;18.60;99.90;;;;;;5038992;28;20480;-73
2022/07/09 06:27:44;;;;;;;11.10;7.95;;;18.60;99.90;;;;;;5052437;28;20052;-74
2022/07/09 06:30:10;;;;;;;13.40;8.75;;;18.70;99.90;;;;;;5053781;28;20055;-75
2022/07/09 06:32:35;;;;;;;13.45;8.00;;;18.70;99.90;;;;;;5052684;28;20048;-74
2022/07/09 06:35:02;;;;;;;12.52;7.40;;;18.70;99.90;;;;;;5037051;28;20072;-76
2022/07/09 06:37:28;;;;;;;12.65;8.15;;;18.70;99.90;;;;;;5032994;28;20049;-75
2022/07/09 06:39:56;;;;;;;13.30;7.13;;;18.80;99.90;;;;;;5038653;28;20033;-75
2022/07/09 06:42:22;;;;;;;12.13;7.68;;;18.80;99.90;;;;;;5034154;28;20064;-75
2022/07/09 06:44:48;;;;;;;12.77;7.03;;;18.80;99.90;;;;;;5024196;28;20045;-75
2022/07/09 06:47:14;;;;;;;12.68;6.47;;;18.70;99.90;;;;;;5048768;28;20174;-72
2022/07/09 06:49:40;;;;;;;11.57;6.55;;;18.70;99.90;;;;;;5042493;28;20121;-75
2022/07/09 06:52:06;;;;;;;10.00;5.82;;;18.70;99.90;;;;;;5034769;28;20124;-76
2022/07/09 06:54:31;;;;;;;12.50;6.03;;;18.80;99.90;;;;;;5033376;28;20049;-75
2022/07/09 06:56:57;;;;;;;10.90;6.07;;;18.80;99.90;;;;;;5032261;28;20049;-76
2022/07/09 06:59:23;;;;;;;10.70;5.72;;;18.80;99.90;;;;;;5029787;28;20365;-78
2022/07/09 07:01:49;;;;;;;11.45;6.00;;;18.80;99.90;;;;;;5040352;28;20045;-77
2022/07/09 07:04:15;;;;;;;10.68;6.13;;;18.90;99.90;;;;;;5031782;28;20049;-75
2022/07/09 07:06:46;;;;;;;12.30;6.13;;;19.00;99.90;;;;;;5039874;28;20088;-76
2022/07/09 07:09:12;;;;;;;10.68;5.93;;;19.00;99.90;;;;;;5040581;28;20084;-75
2022/07/09 07:11:38;;;;;;;10.95;5.78;;;19.00;99.90;;;;;;5041674;28;20056;-76
2022/07/09 07:14:04;;;;;;;11.23;5.60;;;19.00;99.90;;;;;;5041604;28;20037;-76
2022/07/09 07:16:29;;;;;;;10.13;5.47;;;18.90;99.90;;;;;;5042396;28;20049;-76
2022/07/09 07:18:55;;;;;;;10.27;5.50;;;18.90;99.90;;;;;;5037271;28;20498;-76
2022/07/09 07:21:21;;;;;;;9.32;5.18;;;18.90;99.90;;;;;;5031344;28;20076;-73
2022/07/09 07:23:47;;;;;;;10.30;4.68;;;18.90;99.90;;;;;;5045248;28;20118;-76
2022/07/09 07:26:12;;;;;;;7.53;4.55;;;19.00;99.90;;;;;;5041557;28;20066;-75
2022/07/09 07:28:38;;;;;;;9.55;4.82;;;19.00;99.90;;;;;;5030470;28;20369;-78
2022/07/09 07:31:04;;;;;;;9.25;4.47;;;19.00;99.90;;;;;;5042954;28;20048;-76
2022/07/09 07:33:29;;;;;;;7.65;4.47;;;19.10;99.90;;;;;;5047805;28;20054;-76
2022/07/09 07:35:55;;;;;;;9.93;5.00;;;19.10;99.90;;;;;;5037594;28;20060;-75
2022/07/09 07:38:22;;;;;;;9.50;4.45;;;19.10;99.90;;;;;;5042074;28;20399;-74
2022/07/09 07:40:48;;;;;;;9.88;4.75;;;19.00;99.90;;;;;;5031604;28;20050;-75
2022/07/09 07:43:13;;;;;;;9.15;4.43;;;19.00;99.90;;;;;;5034916;28;20102;-76
2022/07/09 07:45:39;;;;;;;8.55;4.10;;;18.90;99.90;;;;;;5047459;28;20051;-74
2022/07/09 07:48:05;;;;;;;7.57;4.15;;;18.90;99.90;;;;;;5030909;28;20057;-76
2022/07/09 07:50:32;;;;;;;7.50;3.70;;;18.90;99.90;;;;;;5030899;28;20051;-76
2022/07/09 07:52:58;;;;;;;7.90;3.55;;;18.80;99.90;;;;;;5031832;28;20405;-76
2022/07/09 07:55:24;;;;;;;9.40;4.10;;;18.90;99.90;;;;;;5048258;28;20051;-77
2022/07/09 07:57:49;;;;;;;9.80;3.90;;;18.90;99.90;;;;;;5043663;28;20037;-77
2022/07/09 08:00:15;;;;;;;8.82;3.78;;;19.00;99.90;;;;;;5015503;28;20049;-77
2022/07/09 08:02:41;;;;;;;9.65;3.83;;;19.20;99.90;;;;;;5037322;28;20077;-78
2022/07/09 08:05:07;;;;;;;7.05;3.70;;;19.30;99.90;;;;;;5048327;28;20501;-79
2022/07/09 08:07:33;;;;;;;6.88;3.58;;;19.40;99.90;;;;;;5050605;28;20057;-75
2022/07/09 08:09:59;;;;;;;8.05;3.50;;;19.50;99.90;;;;;;5036103;28;20054;-73
2022/07/09 08:12:25;;;;;;;7.57;3.00;;;19.60;99.90;;;;;;5038230;28;20853;-75
2022/07/09 08:14:51;;;;;;;7.13;3.03;;;19.60;99.90;;;;;;5051117;28;20077;-75
2022/07/09 08:17:16;;;;;;;8.63;3.20;;;19.60;99.90;;;;;;5045688;28;20523;-75
2022/07/09 08:19:42;;;;;;;8.43;2.80;;;19.60;99.90;;;;;;5032082;28;20057;-74
2022/07/09 08:22:08;;;;;;;6.75;2.95;;;19.80;99.90;;;;;;5030744;28;20128;-75
2022/07/09 08:24:33;;;;;;;7.63;2.65;;;20.00;99.90;;;;;;5044192;28;20049;-76
2022/07/09 08:26:59;;;;;;;6.97;2.60;;;20.20;99.90;;;;;;5046085;28;20538;-74
2022/07/09 08:29:25;;;;;;;6.93;2.45;;;20.60;99.90;;;;;;5054693;28;20098;-76
2022/07/09 08:31:51;;;;;;;7.50;2.50;;;21.10;99.90;;;;;;5048086;28;20045;-78
2022/07/09 08:34:17;;;;;;;8.45;2.33;;;21.50;99.90;;;;;;5030670;28;20057;-77
2022/07/09 08:36:44;;;;;;;6.32;2.17;;;21.60;99.90;;;;;;5047135;28;20049;-73
2022/07/09 08:39:10;;;;;;;6.63;2.35;;;21.70;99.90;;;;;;5042858;28;20107;-78
2022/07/09 08:41:36;;;;;;;5.43;2.17;;;21.60;99.90;;;;;;5044616;28;20053;-75
2022/07/09 08:44:04;;;;;;;6.13;2.08;;;21.40;99.90;;;;;;5029694;28;20045;-77
2022/07/09 08:46:32;;;;;;;5.28;1.90;;;21.30;99.90;;;;;;5016947;28;20191;-77
2022/07/09 08:49:01;;;;;;;6.43;2.10;;;21.40;99.90;;;;;;5052287;28;20051;-77
2022/07/09 08:51:26;;;;;;;5.30;2.15;;;21.30;99.90;;;;;;5052384;28;20048;-77
2022/07/09 08:53:54;;;;;;;4.97;2.10;;;21.50;99.90;;;;;;5035371;28;20408;-75
2022/07/09 08:56:20;;;;;;;6.05;2.10;;;21.40;99.90;;;;;;5034152;28;20489;-76
2022/07/09 08:58:46;;;;;;;5.25;2.15;;;21.50;99.90;;;;;;5033294;28;20071;-77
2022/07/09 09:01:17;;;;;;;6.70;1.90;;;21.40;99.90;;;;;;5015971;28;20111;-78
2022/07/09 09:03:43;;;;;;;5.97;2.03;;;21.50;99.90;;;;;;5018945;28;20045;-76
2022/07/09 09:06:10;;;;;;;6.00;1.70;;;21.80;99.90;;;;;;5035789;28;20447;-77
2022/07/09 09:08:38;;;;;;;6.18;1.95;;;22.30;99.90;;;;;;5042069;28;20045;-76
2022/07/09 09:11:05;;;;;;;5.53;1.70;;;22.30;99.90;;;;;;5050133;28;20048;-74
2022/07/09 09:13:36;;;;;;;4.35;1.60;;;22.10;99.90;;;;;;5044590;28;20068;-75
2022/07/09 09:16:06;;;;;;;4.07;1.52;;;22.00;99.90;;;;;;5048960;28;20150;-77
2022/07/09 09:18:36;;;;;;;5.78;1.80;;;22.20;99.90;;;;;;5046978;28;20049;-77
2022/07/09 09:21:04;;;;;;;5.10;1.65;;;22.50;99.90;;;;;;5034055;28;20111;-77
2022/07/09 09:23:37;;;;;;;5.80;1.60;;;22.90;99.90;;;;;;5033234;28;20048;-77
2022/07/09 09:26:18;;;;;;;4.07;1.70;;;23.10;99.90;;;;;;5034234;28;20068;-75
2022/07/09 09:28:59;;;;;;;3.95;1.50;;;23.00;99.90;;;;;;5031816;28;20400;-78
2022/07/09 09:31:27;;;;;;;5.43;1.75;;;22.80;99.90;;;;;;5047229;28;20048;-77
2022/07/09 09:33:58;;;;;;;4.90;1.70;;;22.60;99.90;;;;;;5047352;28;20508;-77
2022/07/09 09:36:37;;;;;;;3.78;1.48;;;22.70;99.90;;;;;;5046486;28;20060;-76
2022/07/09 09:39:19;;;;;;;5.68;1.65;;;22.90;99.90;;;;;;5037221;28;20060;-75
2022/07/09 09:41:55;;;;;;;5.50;1.60;;;23.10;99.90;;;;;;5040408;28;20041;-76
2022/07/09 09:44:26;;;;;;;5.70;1.63;;;23.20;99.90;;;;;;5044420;28;20056;-76
2022/07/09 09:46:53;;;;;;;5.20;1.60;;;23.40;99.90;;;;;;5033955;28;20099;-76
2022/07/09 09:49:19;;;;;;;4.30;1.30;;;23.40;99.90;;;;;;5053346;28;20057;-74
2022/07/09 09:51:56;;;;;;;4.30;1.50;;;23.60;99.90;;;;;;5041136;28;20499;-78
2022/07/09 09:54:22;;;;;;;5.05;1.45;;;23.70;99.90;;;;;;5045280;28;20049;-77
2022/07/09 09:56:49;;;;;;;4.00;1.40;;;23.80;99.90;;;;;;5034441;28;20135;-75
2022/07/09 09:59:16;;;;;;;6.22;1.42;;;23.90;99.90;;;;;;5032381;28;20053;-76
2022/07/09 10:01:42;;;;;;;3.47;1.25;;;23.70;96.20;;;;;;5050439;28;20526;-77
2022/07/09 10:04:13;;;;;;;5.47;1.50;;;23.60;98.00;;;;;;5044162;28;20395;-74
2022/07/09 10:06:39;;;;;;;5.47;1.50;;;23.70;99.60;;;;;;5046935;28;20503;-77
2022/07/09 10:09:07;;;;;;;4.60;1.10;;;23.80;99.10;;;;;;5032687;28;20361;-76
2022/07/09 10:11:50;;;;;;;5.20;1.40;;;23.50;98.80;;;;;;5043513;28;20068;-77
2022/07/09 10:14:32;;;;;;;5.13;1.55;;;23.10;98.30;;;;;;5039786;28;20124;-76
2022/07/09 10:17:13;;;;;;;7.85;1.60;;;22.60;98.90;;;;;;5034434;28;20045;-76
2022/07/09 10:19:51;;;;;;;6.68;1.70;;;22.20;99.90;;;;;;5025936;28;20080;-75
2022/07/09 10:22:17;;;;;;;7.20;1.60;;;21.90;99.90;;;;;;5024040;28;20064;-75
2022/07/09 10:24:45;;;;;;;4.47;1.40;;;22.00;99.90;;;;;;5038409;28;20183;-80
2022/07/09 10:27:12;;;;;;;6.15;1.40;;;22.30;99.90;;;;;;5051729;28;20472;-78
2022/07/09 10:29:53;;;;;;;4.38;1.13;;;22.70;99.90;;;;;;5039053;28;20041;-77
2022/07/09 10:32:42;;;;;;;5.30;1.30;;;23.20;99.40;;;;;;5036573;28;20053;-73
2022/07/09 10:35:08;;;;;;;4.60;1.20;;;23.60;98.70;;;;;;5032426;28;20399;-76
2022/07/09 10:37:44;;;;;;;7.40;1.70;;;23.80;97.20;;;;;;5032315;28;20440;-75
2022/07/09 10:40:18;;;;;;;5.10;1.30;;;24.10;97.20;;;;;;5045759;28;20510;-76
2022/07/09 10:42:45;;;;;;;4.55;1.20;;;23.70;94.30;;;;;;5031476;28;20056;-76
2022/07/09 10:45:31;;;;;;;4.78;1.30;;;23.40;93.70;;;;;;5015862;28;20124;-76
2022/07/09 10:48:01;;;;;;;5.00;1.27;;;22.90;95.00;;;;;;5041911;28;20435;-77
2022/07/09 10:50:29;;;;;;;4.45;1.40;;;22.90;96.70;;;;;;5035218;28;20060;-76
2022/07/09 10:52:56;;;;;;;6.47;1.33;;;23.10;97.90;;;;;;5032978;28;20496;-75
2022/07/09 10:55:24;;;;;;;5.45;1.50;;;23.50;96.40;;;;;;5046583;28;20128;-76
2022/07/09 10:57:50;;;;;;;6.03;1.60;;;23.80;97.80;;;;;;5044741;28;20049;-77
2022/07/09 11:00:17;;;;;;;6.40;1.40;;;23.70;96.70;;;;;;5037589;28;20048;-74
2022/07/09 11:02:53;;;;;;;7.10;1.50;;;23.40;95.20;;;;;;5041194;28;20057;-76
2022/07/09 11:05:19;;;;;;;5.47;1.30;;;23.60;95.90;;;;;;5049575;28;20396;-78
2022/07/09 11:08:01;;;;;;;4.75;1.30;;;23.50;94.30;;;;;;5042233;28;20049;-76
2022/07/09 11:10:28;;;;;;;6.90;1.38;;;23.80;94.70;;;;;;5015489;28;20049;-75
2022/07/09 11:12:59;;;;;;;4.75;1.20;;;24.10;94.30;;;;;;5025056;28;20091;-77
2022/07/09 11:15:28;;;;;;;6.47;1.40;;;24.50;91.90;;;;;;5033983;28;20038;-76
2022/07/09 11:18:14;;;;;;;5.53;1.42;;;24.40;84.90;;;;;;5031759;28;20507;-76
2022/07/09 11:20:45;;;;;;;5.13;1.20;;;24.30;85.60;;;;;;5057035;28;20080;-75
2022/07/09 11:23:15;;;;;;;6.22;1.50;;;24.30;88.00;;;;;;5045068;28;20403;-77
2022/07/09 11:25:41;;;;;;;5.63;1.30;;;24.20;85.30;;;;;;5031879;28;20118;-75
2022/07/09 11:28:07;;;;;;;6.18;1.30;;;24.20;87.30;;;;;;5029699;28;20103;-75
2022/07/09 11:30:34;;;;;;;5.53;1.58;;;24.10;90.60;;;;;;5018458;28;20053;-76
2022/07/09 11:33:00;;;;;;;7.60;1.50;;;23.90;90.20;;;;;;5043797;28;20072;-74
2022/07/09 11:35:33;;;;;;;5.10;1.20;;;23.60;91.00;;;;;;5050844;28;20099;-76
2022/07/09 11:38:06;;;;;;;4.85;1.30;;;23.60;91.00;;;;;;5031416;28;20076;-76
2022/07/09 11:40:33;;;;;;;6.03;1.67;;;23.50;89.90;;;;;;5036630;28;20044;-74
2022/07/09 11:42:58;;;;;;;7.05;1.70;;;23.30;93.80;;;;;;5039855;28;20053;-74
2022/07/09 11:45:29;;;;;;;8.25;1.73;;;23.10;96.00;;;;;;5033477;28;20053;-74
2022/07/09 11:48:11;;;;;;;8.98;1.92;;;22.60;99.00;;;;;;5041198;28;20050;-75
2022/07/09 11:50:45;;;;;;;7.32;1.88;;;22.40;99.90;;;;;;5031041;28;20083;-76
2022/07/09 11:53:25;;;;;;;6.75;1.90;;;22.40;99.90;;;;;;5031967;28;20056;-73
2022/07/09 11:56:00;;;;;;;9.60;2.10;;;22.40;99.90;;;;;;5041829;28;20488;-76
2022/07/09 11:58:26;;;;;;;6.78;1.95;;;22.30;99.90;;;;;;5032054;28;20539;-75
2022/07/09 12:00:52;;;;;;;10.73;2.00;;;22.30;99.90;;;;;;5042149;28;20040;-74
2022/07/09 12:03:25;;;;;;;9.13;2.05;;;22.10;99.90;;;;;;5048662;28;20071;-76
2022/07/09 12:05:51;;;;;;;7.70;1.92;;;22.10;99.90;;;;;;5031324;28;20049;-75
2022/07/09 12:08:29;;;;;;;8.48;1.90;;;22.20;99.90;;;;;;5030347;28;20071;-73
2022/07/09 12:10:56;;;;;;;7.18;1.88;;;22.10;99.90;;;;;;5050766;28;20088;-76
2022/07/09 12:13:21;;;;;;;7.97;1.85;;;21.90;99.90;;;;;;5033001;28;20048;-76
2022/07/09 12:15:47;;;;;;;6.97;1.75;;;21.50;99.90;;;;;;5051386;28;20048;-76
2022/07/09 12:18:13;;;;;;;6.72;1.88;;;21.30;99.90;;;;;;5038703;28;20195;-76
2022/07/09 12:20:38;;;;;;;6.50;1.83;;;21.40;99.90;;;;;;5041434;28;20099;-75
2022/07/09 12:23:04;;;;;;;5.40;1.48;;;21.50;99.90;;;;;;5035275;28;20056;-74
2022/07/09 12:25:30;;;;;;;6.78;1.75;;;21.50;99.90;;;;;;5048103;28;20053;-75
2022/07/09 12:27:56;;;;;;;7.47;1.70;;;21.60;99.90;;;;;;5033522;28;20429;-75
2022/07/09 12:30:21;;;;;;;8.57;1.70;;;21.80;99.90;;;;;;5039533;28;20051;-75
2022/07/09 12:32:47;;;;;;;6.28;1.80;;;21.80;99.90;;;;;;5045145;28;20052;-74
2022/07/09 12:35:13;;;;;;;6.47;1.80;;;21.60;99.90;;;;;;5034258;28;20388;-76
2022/07/09 12:37:40;;;;;;;8.60;1.85;;;21.40;99.90;;;;;;5018415;28;20477;-76